20:04
Airports
Links
Donate
Help keep this website running!
PayPal
Bitcoin
METAR
EDDE 191950Z 03002KT CAVOK M01/M04 Q1017 NOSIG
Current Weather Conditions at EDDE
VFR 19:50:00 19-02-18
Altimeter:30.03 hg
Temp:-1.0°c 30°f
Dew point:-4.0°c 25°f
Wind:2 knots, 2.3 mph, 1 m/s, from 30°
Visibility:6.21 statute miles
(CAVOK)
No significant weather changes expected within 2 hours.
Past METAR reports
VFR 19:20:00 19-02-18
Altimeter:30.03 hg
Temp:-1.0°c 30°f
Dew point:-3.0°c 27°f
Wind:3 knots, 3.5 mph, 2 m/s, from 40°
Visibility:6.21 statute miles
(CAVOK)
No significant weather changes expected within 2 hours.
EDDE 191920Z 04003KT CAVOK M01/M03 Q1017 NOSIG
VFR 18:50:00 19-02-18
Altimeter:30.03 hg
Temp:-1.0°c 30°f
Dew point:-3.0°c 27°f
Wind:2 knots, 2.3 mph, 1 m/s, from 20°
Visibility:6.21 statute miles
(CAVOK)
No significant weather changes expected within 2 hours.
EDDE 191850Z 02002KT CAVOK M01/M03 Q1017 NOSIG
VFR 18:20:00 19-02-18
Altimeter:30.03 hg
Temp:-1.0°c 30°f
Dew point:-3.0°c 27°f
Wind:3 knots, 3.5 mph, 2 m/s, from 10°
Visibility:6.21 statute miles
(CAVOK)
No significant weather changes expected within 2 hours.
EDDE 191820Z 01003KT 340V040 CAVOK M01/M03 Q1017 NOSIG
VFR 17:50:00 19-02-18
Altimeter:30.03 hg
Temp:-1.0°c 30°f
Dew point:-3.0°c 27°f
Wind:2 knots, 2.3 mph, 1 m/s, from 30°
Visibility:6.21 statute miles
(CAVOK)
No significant weather changes expected within 2 hours.
EDDE 191750Z 03002KT CAVOK M01/M03 Q1017 NOSIG
VFR 17:20:00 19-02-18
Altimeter:30.03 hg
Temp:-1.0°c 30°f
Dew point:-3.0°c 27°f
Wind:3 knots, 3.5 mph, 2 m/s, from 40°
Visibility:6.21 statute miles
(CAVOK)
No significant weather changes expected within 2 hours.
EDDE 191720Z 04003KT CAVOK M01/M03 Q1017 NOSIG
VFR 16:50:00 19-02-18
Altimeter:30.03 hg
Temp:-1.0°c 30°f
Dew point:-3.0°c 27°f
Wind:4 knots, 4.6 mph, 2 m/s, from 10°
Visibility:6.21 statute miles
(CAVOK)
No significant weather changes expected within 2 hours.
EDDE 191650Z 01004KT CAVOK M01/M03 Q1017 NOSIG
TAF
TAF EDDE 191700Z 1918/2018 VRB03KT 9000 NSC PROB30 TEMPO 1920/1924 4500 BR BECMG 2000/2003 3000 BR BECMG 2008/2012 05005KT 9000
Forecast at EDDE
18:00 19-02-18 to 00:00 20-02-18
Wind:3 Knots from 360°
Visibility:5.59 statute miles
NSC
TEMPO 20:00 19-02-18 to 00:00 20-02-18
30% BR
Visibility:2.8 statute miles
BECMG 00:00 20-02-18 to 08:00 20-02-18
BR
Wind:3 Knots from 360°
Visibility:1.86 statute miles
NSC
BECMG 08:00 20-02-18 to 18:00 20-02-18
BR
Wind:5 Knots from 50°
Visibility:5.59 statute miles
NSC